1966 INEZ (1966265N10325)


On this page: IBTrACS data - Map and Plots - Positions - Intensities - Original source data

Summary

Start Sep 21
End Oct 11
Basins EP
NA
LMI 130 kt
Sources hurdat_atl
atcf
In WMO? Yes
Previous storm 1966 HALLIE (NA)
Previous in basin 1966 HALLIE (NA)
Concurrent storms 1966 HELEN (WP)
1966 IDA (WP)
1966 JUNE (WP)
1966 MISSING (WP)
1966 HALLIE (NA)
1966 INEZ (NA)
1966 31W (WP)
1966 KIRSTEN (EP)
1966 08B (NI)
1966 JUDITH (NA)
1967 01S (SI)
1966 10A (NI)
1966 MISSING (WP)
1967 ANGELA (SI)
1966 LORRAINE (EP)
1966 KATHY (WP)
1966 30W (WP)
1966 12B (NI)
Next in basin 1966 JUDITH (NA)
Next storm 1966 31W (WP)

top of page IBTrACS Data: File Access

No storm imagery available

top of page Plots:

Map of storm track will not appear if FTP is down
Time series of cyclone Maximum Sustained Wind will not appear if FTP is down
Time series of cyclone Minimum Central Pressure will not appear if FTP is down

top of page Track Data:Position

hurdat_atl atcf
Date Lat Lon Lat Lon
1966-09-21 12:00:00 9.9 -35.1 9.9 -35.1
1966-09-21 18:00:00 10.4 -36.0 10.4 -36.0
1966-09-22 00:00:00 10.9 -37.1 10.9 -37.1
1966-09-22 06:00:00 11.3 -38.3 11.3 -38.3
1966-09-22 12:00:00 11.7 -39.4 11.7 -39.4
1966-09-22 18:00:00 12.0 -40.6 12.0 -40.6
1966-09-23 00:00:00 12.3 -41.7 12.3 -41.7
1966-09-23 06:00:00 12.7 -43.1 12.7 -43.1
1966-09-23 12:00:00 13.1 -44.3 13.1 -44.3
1966-09-23 18:00:00 13.4 -45.1 13.4 -45.1
1966-09-24 00:00:00 13.7 -46.0 13.7 -46.0
1966-09-24 06:00:00 14.0 -46.9 14.0 -46.9
1966-09-24 12:00:00 14.4 -47.7 14.4 -47.7
1966-09-24 18:00:00 14.8 -48.7 14.8 -48.7
1966-09-25 00:00:00 15.1 -49.7 15.1 -49.7
1966-09-25 06:00:00 15.4 -50.6 15.4 -50.6
1966-09-25 12:00:00 15.6 -51.5 15.6 -51.5
1966-09-25 18:00:00 15.6 -52.5 15.6 -52.5
1966-09-26 00:00:00 15.6 -53.6 15.6 -53.6
1966-09-26 06:00:00 15.7 -54.8 15.7 -54.8
1966-09-26 12:00:00 15.8 -56.0 15.8 -56.0
1966-09-26 18:00:00 15.8 -57.0 15.8 -57.0
1966-09-27 00:00:00 15.9 -58.0 15.9 -58.0
1966-09-27 06:00:00 16.0 -59.2 16.0 -59.2
1966-09-27 12:00:00 16.1 -60.4 16.1 -60.4
hurdat_atl atcf
1966-09-27 18:00:00 16.2 -61.7 16.2 -61.7
1966-09-28 00:00:00 16.3 -63.0 16.3 -63.0
1966-09-28 06:00:00 16.5 -64.3 16.5 -64.3
1966-09-28 12:00:00 16.8 -65.7 16.8 -65.7
1966-09-28 18:00:00 17.0 -67.1 17.0 -67.1
1966-09-29 00:00:00 17.1 -68.5 17.1 -68.5
1966-09-29 06:00:00 17.3 -69.7 17.3 -69.7
1966-09-29 12:00:00 17.5 -70.9 17.5 -70.9
1966-09-29 18:00:00 18.1 -72.3 18.1 -72.3
1966-09-30 00:00:00 18.8 -73.6 18.8 -73.6
1966-09-30 06:00:00 19.3 -74.5 19.3 -74.5
1966-09-30 12:00:00 19.8 -75.4 19.8 -75.4
1966-09-30 18:00:00 20.2 -76.3 20.2 -76.3
1966-10-01 00:00:00 20.5 -77.1 20.5 -77.1
1966-10-01 06:00:00 20.8 -78.1 20.8 -78.1
1966-10-01 12:00:00 21.2 -79.1 21.2 -79.1
1966-10-01 18:00:00 21.9 -79.8 21.9 -79.8
1966-10-02 00:00:00 22.6 -80.1 22.6 -80.1
1966-10-02 06:00:00 23.0 -80.1 23.0 -80.1
1966-10-02 12:00:00 23.3 -79.9 23.3 -79.9
1966-10-02 18:00:00 24.0 -79.5 24.0 -79.5
1966-10-03 00:00:00 24.6 -79.1 24.6 -79.1
1966-10-03 06:00:00 24.9 -78.8 24.9 -78.8
1966-10-03 12:00:00 25.2 -78.5 25.2 -78.5
hurdat_atl atcf
1966-10-03 18:00:00 25.4 -78.3 25.4 -78.3
1966-10-04 00:00:00 25.6 -78.4 25.6 -78.4
1966-10-04 06:00:00 25.5 -79.0 25.5 -79.0
1966-10-04 12:00:00 25.3 -79.7 25.3 -79.7
1966-10-04 18:00:00 25.0 -80.5 25.0 -80.5
1966-10-05 00:00:00 24.7 -81.3 24.7 -81.3
1966-10-05 06:00:00 24.6 -82.2 24.6 -82.2
1966-10-05 12:00:00 24.5 -83.0 24.5 -83.0
1966-10-05 18:00:00 24.3 -83.6 24.3 -83.6
1966-10-06 00:00:00 24.0 -84.3 24.0 -84.3
1966-10-06 06:00:00 23.7 -85.0 23.7 -85.0
1966-10-06 12:00:00 23.3 -85.6 23.3 -85.6
1966-10-06 18:00:00 22.8 -86.3 22.8 -86.3
1966-10-07 00:00:00 22.3 -87.2 22.3 -87.2
1966-10-07 06:00:00 22.1 -88.1 22.1 -88.1
1966-10-07 12:00:00 21.9 -89.0 21.9 -89.0
1966-10-07 18:00:00 21.7 -90.0 21.7 -90.0
1966-10-08 00:00:00 21.5 -91.0 21.5 -91.0
1966-10-08 06:00:00 21.5 -92.1 21.5 -92.1
1966-10-08 12:00:00 21.8 -93.1 21.8 -93.1
1966-10-08 18:00:00 22.1 -93.9 22.1 -93.9
1966-10-09 00:00:00 22.3 -94.6 22.3 -94.6
1966-10-09 06:00:00 22.6 -95.2 22.6 -95.2
1966-10-09 12:00:00 22.8 -95.7 22.8 -95.7
hurdat_atl atcf
1966-10-09 18:00:00 23.0 -96.0 23.0 -96.0
1966-10-10 00:00:00 23.0 -96.4 23.0 -96.4
1966-10-10 06:00:00 23.0 -97.1 23.0 -97.1
1966-10-10 12:00:00 22.8 -97.8 22.8 -97.8
1966-10-10 18:00:00 22.4 -98.5 22.4 -98.5
1966-10-11 00:00:00 22.1 -99.2 22.1 -99.2
1966-10-11 06:00:00 21.8 -99.9 21.8 -99.9
1966-10-11 12:00:00 21.5 -100.6 21.5 -100.6

top of pageTrack Data:Intensity

hurdat_atl atcf
Date Wind Pres Wind Pres
1966-09-21 12:00:00 25. 25.
1966-09-21 18:00:00 25. 25.
1966-09-22 00:00:00 25. 25.
1966-09-22 06:00:00 25. 25.
1966-09-22 12:00:00 25. 25.
1966-09-22 18:00:00 25. 25.
1966-09-23 00:00:00 25. 25.
1966-09-23 06:00:00 25. 25.
1966-09-23 12:00:00 30. 30.
1966-09-23 18:00:00 30. 30.
1966-09-24 00:00:00 30. 30.
1966-09-24 06:00:00 30. 30.
1966-09-24 12:00:00 30. 1009. 30. 1009.
1966-09-24 18:00:00 40. 1008. 40. 1008.
1966-09-25 00:00:00 45. 45.
1966-09-25 06:00:00 50. 50.
1966-09-25 12:00:00 55. 1000. 55. 1000.
1966-09-25 18:00:00 60. 1000. 60. 1000.
1966-09-26 00:00:00 60. 60.
1966-09-26 06:00:00 60. 60.
1966-09-26 12:00:00 70. 995. 70. 995.
1966-09-26 18:00:00 75. 982. 75. 982.
1966-09-27 00:00:00 80. 80.
1966-09-27 06:00:00 95. 965. 95. 965.
1966-09-27 12:00:00 105. 961. 105. 961.
hurdat_atl atcf
1966-09-27 18:00:00 110. 962. 110. 962.
1966-09-28 00:00:00 110. 110.
1966-09-28 06:00:00 115. 955. 115. 955.
1966-09-28 12:00:00 120. 120.
1966-09-28 18:00:00 130. 932. 130. 932.
1966-09-29 00:00:00 130. 929. 130. 929.
1966-09-29 06:00:00 125. 125.
1966-09-29 12:00:00 120. 120.
1966-09-29 18:00:00 100. 100.
1966-09-30 00:00:00 80. 987. 80. 987.
1966-09-30 06:00:00 90. 90.
1966-09-30 12:00:00 100. 100.
1966-09-30 18:00:00 65. 65.
1966-10-01 00:00:00 65. 65.
1966-10-01 06:00:00 65. 65.
1966-10-01 12:00:00 65. 65.
1966-10-01 18:00:00 65. 65.
1966-10-02 00:00:00 65. 65.
1966-10-02 06:00:00 65. 65.
1966-10-02 12:00:00 55. 55.
1966-10-02 18:00:00 55. 999. 55. 999.
1966-10-03 00:00:00 65. 995. 65. 995.
1966-10-03 06:00:00 65. 989. 65. 989.
1966-10-03 12:00:00 65. 985. 65. 985.
hurdat_atl atcf
1966-10-03 18:00:00 70. 986. 70. 986.
1966-10-04 00:00:00 75. 985. 75. 985.
1966-10-04 06:00:00 75. 75.
1966-10-04 12:00:00 75. 987. 75. 987.
1966-10-04 18:00:00 75. 984. 75. 984.
1966-10-05 00:00:00 75. 988. 75. 988.
1966-10-05 06:00:00 80. 985. 80. 985.
1966-10-05 12:00:00 80. 80.
1966-10-05 18:00:00 85. 980. 85. 980.
1966-10-06 00:00:00 90. 970. 90. 970.
1966-10-06 06:00:00 95. 983. 95. 983.
1966-10-06 12:00:00 95. 974. 95. 974.
1966-10-06 18:00:00 100. 974. 100. 974.
1966-10-07 00:00:00 105. 961. 105. 961.
1966-10-07 06:00:00 110. 110.
1966-10-07 12:00:00 110. 110.
1966-10-07 18:00:00 115. 972. 115. 972.
1966-10-08 00:00:00 115. 972. 115. 972.
1966-10-08 06:00:00 115. 115.
1966-10-08 12:00:00 120. 953. 120. 953.
1966-10-08 18:00:00 120. 956. 120. 956.
1966-10-09 00:00:00 120. 948. 120. 948.
1966-10-09 06:00:00 120. 951. 120. 951.
1966-10-09 12:00:00 120. 120.
hurdat_atl atcf
1966-10-09 18:00:00 120. 953. 120. 953.
1966-10-10 00:00:00 115. 960. 115. 960.
1966-10-10 06:00:00 110. 962. 110. 962.
1966-10-10 12:00:00 105. 961. 105. 961.
1966-10-10 18:00:00 60. 60.
1966-10-11 00:00:00 30. 30.
1966-10-11 06:00:00 30. 30.
1966-10-11 12:00:00 30. 30.

top of page Links to source data

Source Source file Format
hurdat_atl tracks1851to2011.txt:942:INEZ HURDAT
atcf bal091966.dat ATCF